Main page
METAR-TAF:

METAR-TAF

Airports :

Shimla Airport

Shimla, India

latitude: 31-04-54N, longitude: 77-04-05E, elevation: 1546 m

Current weather observation

The report was made 13 hours and 51 minutes ago, at 07:30 UTC
Wind 5 kt from the West
Temperature 21°C
Humidity 38%
Pressure 1022 hPa
Visibility: 6000 m

METAR: VISM 280730Z 27005KT 6000 NSC 21/06 Q1022

Time: 02:51 (21:21 UTC)

Forecast

The report was made 22 hours and 20 minutes ago, at 23:01 UTC
Forecast valid from 28 at 00 UTC to 28 at 09 UTC
Wind kt from the North
Visibility: 2000 m
mist
Becoming
from 28 at 03 UTC to 28 at 05 UTC
Visibility: 5000 m
Few clouds at a height of 3000 ft
haze

TAF: VISM 272301Z 2800/2809 00000KT 2000 BR NSC BECMG 2803/2805 5000 HZ FEW030

Weather observations and forecasts of more than 4000 airports (METAR and TAF reports).

The available stations are represented by yellow and red dots on the map.

Hover mouse over dot to see the name of the station.

Then click to see weather observations and forecasts.

To change the map : click on the green buttons with a black cross to zoom in, on the green button with a dash to zoom out, or on the green arrows for adjacent maps.


METAR-TAF: